Time;durP1;ratioP1;P1;durP2;ratioP2;P2;SDS_P1;SDS_P2;PMS_P1;PMS_P2;Temp;Humidity;BMP_temperature;BMP_pressure;BME280_temperature;BME280_humidity;BME280_pressure;Samples;Min_cycle;Max_cycle;Signal;HPM_P1;HPM_P2
2022/12/16 00:02:19;;;;;;;35.78;20.27;;;-0.30;99.90;;;;;;4983526;28;20038;-86
2022/12/16 00:04:44;;;;;;;32.85;19.23;;;-0.30;99.90;;;;;;4967565;28;20037;-86
2022/12/16 00:07:10;;;;;;;37.95;19.60;;;-0.30;99.90;;;;;;4999482;28;20037;-86
2022/12/16 00:09:36;;;;;;;36.15;19.25;;;-0.30;99.90;;;;;;4983269;28;20462;-87
2022/12/16 00:12:01;;;;;;;32.90;19.52;;;-0.30;99.90;;;;;;4999287;28;20467;-86
2022/12/16 00:14:28;;;;;;;35.72;19.95;;;-0.30;99.90;;;;;;4999921;28;20019;-87
2022/12/16 00:16:53;;;;;;;35.40;20.55;;;-0.20;99.90;;;;;;4983538;28;20030;-86
2022/12/16 00:19:19;;;;;;;38.38;20.58;;;-0.20;99.90;;;;;;4999867;28;20050;-86
2022/12/16 00:21:45;;;;;;;32.10;19.17;;;-0.20;99.90;;;;;;4999701;28;20085;-87
2022/12/16 00:24:10;;;;;;;33.15;19.10;;;-0.20;99.90;;;;;;4967900;28;20125;-86
2022/12/16 00:26:39;;;;;;;37.40;19.80;;;-0.20;99.90;;;;;;4983237;28;20034;-87
2022/12/16 00:29:05;;;;;;;33.72;19.88;;;-0.20;99.90;;;;;;5000089;28;20108;-86
2022/12/16 00:31:31;;;;;;;35.38;19.77;;;-0.10;99.90;;;;;;4999639;28;20053;-87
2022/12/16 00:33:57;;;;;;;35.00;19.38;;;-0.10;99.90;;;;;;5000548;28;20459;-87
2022/12/16 00:36:23;;;;;;;36.80;20.40;;;-0.10;99.90;;;;;;4998826;28;20041;-87
2022/12/16 00:39:00;;;;;;;38.33;21.65;;;-0.10;99.90;;;;;;4998811;28;20040;-87
2022/12/16 00:41:25;;;;;;;35.35;20.75;;;-0.10;99.90;;;;;;4999904;28;20088;-87
2022/12/16 00:43:51;;;;;;;36.47;21.30;;;-0.10;99.90;;;;;;4999214;28;20017;-87
2022/12/16 00:46:17;;;;;;;37.15;21.05;;;-0.10;99.90;;;;;;4982954;28;20058;-87
2022/12/16 00:48:42;;;;;;;35.97;21.48;;;-0.10;99.90;;;;;;4983054;28;20026;-87
2022/12/16 00:51:08;;;;;;;35.97;20.77;;;0.00;99.90;;;;;;4982847;28;20026;-86
2022/12/16 00:53:34;;;;;;;42.28;21.35;;;0.00;99.90;;;;;;4998621;28;20104;-87
2022/12/16 00:56:13;;;;;;;32.50;19.35;;;0.00;99.90;;;;;;5015397;28;20022;-87
2022/12/16 00:58:40;;;;;;;36.05;21.20;;;0.00;99.90;;;;;;5016600;28;20052;-87
2022/12/16 01:01:08;;;;;;;36.83;21.15;;;-0.10;99.90;;;;;;4998230;28;20028;-87
2022/12/16 01:03:34;;;;;;;36.03;20.55;;;0.00;99.90;;;;;;4998122;28;20022;-87
2022/12/16 01:06:03;;;;;;;37.03;21.77;;;0.00;99.90;;;;;;4982683;28;20026;-87
2022/12/16 01:08:29;;;;;;;35.28;20.38;;;0.00;99.90;;;;;;4998499;28;20480;-87
2022/12/16 01:10:56;;;;;;;33.25;19.80;;;0.00;99.90;;;;;;4998506;28;20061;-88
2022/12/16 01:13:35;;;;;;;;;;;;;;;;;;;;;
2022/12/16 01:16:04;;;;;;;36.63;19.88;;;0.00;99.90;;;;;;5015983;28;20125;-87
2022/12/16 01:18:30;;;;;;;36.55;20.73;;;0.00;99.90;;;;;;4982475;28;20076;-88
2022/12/16 01:21:12;;;;;;;36.85;21.10;;;0.00;99.90;;;;;;4998780;28;20057;-87
2022/12/16 01:23:48;;;;;;;33.45;20.55;;;0.00;99.90;;;;;;4998659;28;20022;-88
2022/12/16 01:26:18;;;;;;;35.65;20.05;;;0.00;99.90;;;;;;5000043;28;20022;-87
2022/12/16 01:28:49;;;;;;;33.63;19.65;;;0.00;99.90;;;;;;5019052;28;20018;-88
2022/12/16 01:31:19;;;;;;;35.33;21.88;;;0.10;99.90;;;;;;5016873;28;20030;-87
2022/12/16 01:33:47;;;;;;;34.92;21.02;;;0.00;99.90;;;;;;5001580;28;20026;-87
2022/12/16 01:36:13;;;;;;;36.05;21.42;;;0.10;99.90;;;;;;4997902;28;20053;-86
2022/12/16 01:38:41;;;;;;;36.25;20.42;;;0.10;99.90;;;;;;4997927;28;20489;-87
2022/12/16 01:41:08;;;;;;;36.17;20.27;;;0.10;99.90;;;;;;4998095;28;20026;-87
2022/12/16 01:43:37;;;;;;;33.03;20.27;;;0.10;99.90;;;;;;4998081;28;20470;-88
2022/12/16 01:46:11;;;;;;;37.15;21.55;;;0.10;99.90;;;;;;4997754;28;20036;-87
2022/12/16 01:49:02;;;;;;;35.45;20.73;;;0.10;99.90;;;;;;5000144;28;20528;-88
2022/12/16 01:51:34;;;;;;;38.67;22.10;;;0.10;99.90;;;;;;4981799;28;20049;-88
2022/12/16 01:54:07;;;;;;;37.58;20.67;;;0.10;99.90;;;;;;4997666;28;20033;-89
2022/12/16 01:56:38;;;;;;;38.08;21.83;;;0.10;99.90;;;;;;4981049;28;20129;-89
2022/12/16 01:59:04;;;;;;;;;;;0.10;99.90;;;;;;4998612;28;20030;-88
2022/12/16 02:01:30;;;;;;;40.50;23.00;;;0.10;99.90;;;;;;4998258;28;19905;-88
2022/12/16 02:04:10;;;;;;;;;;;;;;;;;;;;;
2022/12/16 02:06:39;;;;;;;37.35;21.75;;;0.10;99.90;;;;;;5015106;28;20032;-89
2022/12/16 02:09:09;;;;;;;39.55;21.85;;;0.10;99.90;;;;;;4997962;28;20045;-88
2022/12/16 02:11:47;;;;;;;40.37;22.67;;;0.10;99.90;;;;;;4997882;28;20022;-89
2022/12/16 02:14:44;;;;;;;44.00;22.52;;;0.20;99.90;;;;;;5014320;28;20831;-88
2022/12/16 02:17:15;;;;;;;42.45;22.50;;;0.20;99.90;;;;;;5004268;28;20038;-88
2022/12/16 02:20:17;;;;;;;38.10;22.13;;;0.20;99.90;;;;;;5019597;28;20053;-88
2022/12/16 02:22:55;;;;;;;42.22;22.70;;;0.20;99.90;;;;;;4959253;28;20019;-88
2022/12/16 02:26:00;;;;;;;38.33;21.52;;;0.20;99.90;;;;;;4993570;28;20129;-88
2022/12/16 02:28:26;;;;;;;37.33;21.27;;;0.20;99.90;;;;;;5014256;28;20470;-88
2022/12/16 02:31:06;;;;;;;38.63;22.52;;;0.20;99.90;;;;;;5013866;28;20030;-89
2022/12/16 02:33:46;;;;;;;39.88;22.23;;;0.20;99.90;;;;;;5014182;28;20178;-88
2022/12/16 02:36:25;;;;;;;38.60;21.05;;;0.20;99.90;;;;;;4997634;28;20026;-88
2022/12/16 02:38:54;;;;;;;41.45;22.90;;;0.20;99.90;;;;;;4997620;28;20030;-88
2022/12/16 02:41:36;;;;;;;35.42;21.73;;;0.20;99.90;;;;;;5013899;28;20026;-89
2022/12/16 02:44:10;;;;;;;37.85;22.33;;;0.20;99.90;;;;;;5013936;28;20090;-88
2022/12/16 02:46:43;;;;;;;40.85;23.65;;;0.20;99.90;;;;;;4997771;28;20030;-89
2022/12/16 02:49:44;;;;;;;40.05;22.27;;;0.20;99.90;;;;;;5004215;28;20033;-88
2022/12/16 02:52:12;;;;;;;41.72;22.52;;;0.20;99.90;;;;;;4995774;28;20034;-88
2022/12/16 02:54:41;;;;;;;36.65;21.15;;;0.20;99.90;;;;;;4997300;28;20449;-88
2022/12/16 02:57:32;;;;;;;42.08;22.55;;;0.20;99.90;;;;;;4997334;28;20093;-88
2022/12/16 03:00:11;;;;;;;41.50;23.17;;;0.20;99.90;;;;;;4997447;28;20537;-89
2022/12/16 03:03:00;;;;;;;37.25;22.20;;;0.20;99.90;;;;;;5016059;28;20152;-88
2022/12/16 03:05:34;;;;;;;39.45;23.20;;;0.30;99.90;;;;;;4997605;28;20022;-89
2022/12/16 03:08:12;;;;;;;37.40;22.63;;;0.30;99.90;;;;;;4997515;28;20018;-89
2022/12/16 03:10:44;;;;;;;41.47;23.08;;;0.20;99.90;;;;;;4997385;28;20328;-88
2022/12/16 03:13:15;;;;;;;40.38;22.85;;;0.30;99.90;;;;;;4997275;28;20050;-89
2022/12/16 03:15:47;;;;;;;37.33;22.77;;;0.30;99.90;;;;;;4997040;28;20121;-88
2022/12/16 03:18:15;;;;;;;38.67;22.75;;;0.30;99.90;;;;;;4996885;28;20145;-89
2022/12/16 03:20:55;;;;;;;38.03;23.08;;;0.30;99.90;;;;;;5000988;28;20062;-89
2022/12/16 03:23:31;;;;;;;39.67;23.40;;;0.30;99.90;;;;;;5018381;28;20048;-88
2022/12/16 03:26:28;;;;;;;37.55;22.45;;;0.30;99.90;;;;;;5001240;28;20058;-88
2022/12/16 03:29:15;;;;;;;37.25;22.17;;;0.30;99.90;;;;;;5017204;28;20053;-89
2022/12/16 03:32:08;;;;;;;39.08;21.88;;;0.30;99.90;;;;;;5001159;28;20084;-88
2022/12/16 03:34:41;;;;;;;42.00;22.88;;;0.30;99.90;;;;;;5000906;28;20026;-88
2022/12/16 03:37:10;;;;;;;40.55;24.10;;;0.30;99.90;;;;;;5016875;28;20042;-89
2022/12/16 03:39:41;;;;;;;38.55;23.05;;;0.30;99.90;;;;;;5000774;28;20080;-88
2022/12/16 03:42:14;;;;;;;40.13;23.40;;;0.30;99.90;;;;;;5000251;28;20046;-89
2022/12/16 03:44:43;;;;;;;37.95;21.95;;;0.30;99.90;;;;;;5000464;28;20030;-89
2022/12/16 03:47:11;;;;;;;39.63;23.73;;;0.30;99.90;;;;;;5000274;28;20030;-89
2022/12/16 03:49:37;;;;;;;40.15;24.35;;;0.30;99.90;;;;;;5019487;28;20022;-89
2022/12/16 03:52:03;;;;;;;39.30;22.08;;;0.40;99.90;;;;;;5023219;28;20070;-90
2022/12/16 03:54:34;;;;;;;42.75;26.15;;;0.30;99.90;;;;;;5038878;28;20026;-89
2022/12/16 03:57:03;;;;;;;37.60;23.52;;;0.40;99.90;;;;;;4986133;28;20501;-89
2022/12/16 03:59:29;;;;;;;44.17;23.98;;;0.30;99.90;;;;;;5000465;28;20037;-88
2022/12/16 04:01:54;;;;;;;39.25;23.42;;;0.30;99.90;;;;;;5000054;28;20026;-89
2022/12/16 04:04:23;;;;;;;40.30;23.90;;;0.40;99.90;;;;;;5016722;28;20017;-88
2022/12/16 04:07:18;;;;;;;47.45;24.60;;;0.40;99.90;;;;;;5000181;28;20025;-89
2022/12/16 04:09:34;;;;;;;42.22;23.58;;;0.30;99.90;;;;;;5017171;28;20092;-89
2022/12/16 04:25:58;;;;;;;50.00;25.65;;;0.40;99.90;;;;;;5002356;28;20128;-88
2022/12/16 04:28:23;;;;;;;50.22;24.67;;;0.40;99.90;;;;;;4999558;28;20026;-89
2022/12/16 04:30:52;;;;;;;52.92;25.23;;;0.40;99.90;;;;;;4998999;28;20462;-89
